Time;durP1;ratioP1;P1;durP2;ratioP2;P2;SDS_P1;SDS_P2;PMS_P1;PMS_P2;Temp;Humidity;BMP_temperature;BMP_pressure;BME280_temperature;BME280_humidity;BME280_pressure;Samples;Min_cycle;Max_cycle;Signal;HPM_P1;HPM_P2
2024/02/26 00:00:38;;;;;;;0.85;0.40;;;9.00;99.90;;;;;;4954790;28;20109;-63
2024/02/26 00:03:05;;;;;;;2.30;0.98;;;9.00;99.90;;;;;;4948904;28;20051;-63
2024/02/26 00:05:32;;;;;;;2.05;0.60;;;9.00;99.90;;;;;;4952841;28;20130;-64
2024/02/26 00:07:59;;;;;;;0.43;0.40;;;8.90;99.90;;;;;;4953515;28;20127;-63
2024/02/26 00:10:30;;;;;;;1.77;0.57;;;8.80;99.90;;;;;;4946915;28;20066;-64
2024/02/26 00:12:56;;;;;;;0.85;0.40;;;8.80;99.90;;;;;;4953857;28;20067;-64
2024/02/26 00:15:24;;;;;;;0.40;0.40;;;8.70;99.90;;;;;;4948567;28;20039;-63
2024/02/26 00:17:51;;;;;;;0.35;0.30;;;8.60;99.90;;;;;;4950007;28;20054;-63
2024/02/26 00:20:18;;;;;;;0.90;0.50;;;8.60;99.90;;;;;;4949925;28;20464;-63
2024/02/26 00:22:44;;;;;;;0.85;0.40;;;8.60;99.90;;;;;;4951278;28;20090;-63
2024/02/26 00:25:12;;;;;;;0.60;0.40;;;8.50;99.90;;;;;;4954152;28;20051;-64
2024/02/26 00:27:41;;;;;;;1.45;0.50;;;8.50;99.90;;;;;;4950259;28;20521;-63
2024/02/26 00:30:08;;;;;;;0.95;0.65;;;8.40;99.90;;;;;;4951745;28;20253;-63
2024/02/26 00:32:35;;;;;;;0.52;0.50;;;8.30;99.90;;;;;;4954823;28;20527;-63
2024/02/26 00:35:02;;;;;;;0.40;0.40;;;8.30;99.90;;;;;;4950138;28;20052;-63
2024/02/26 00:37:29;;;;;;;0.65;0.65;;;8.30;99.90;;;;;;4946864;28;20062;-63
2024/02/26 00:39:56;;;;;;;0.45;0.38;;;8.30;99.90;;;;;;4953639;28;20153;-63
2024/02/26 00:42:23;;;;;;;0.52;0.50;;;8.30;99.90;;;;;;4949155;28;20051;-63
2024/02/26 00:44:49;;;;;;;3.60;0.40;;;8.30;99.90;;;;;;4953560;28;20054;-63
2024/02/26 00:47:16;;;;;;;0.50;0.45;;;8.30;99.90;;;;;;4949579;28;20408;-63
2024/02/26 00:49:43;;;;;;;1.00;0.50;;;8.40;99.90;;;;;;4951788;28;20491;-64
2024/02/26 00:52:10;;;;;;;0.43;0.40;;;8.40;99.90;;;;;;4952715;28;20062;-64
2024/02/26 00:54:37;;;;;;;1.58;0.40;;;8.40;99.90;;;;;;4950787;28;20142;-63
2024/02/26 00:57:03;;;;;;;0.82;0.40;;;8.50;99.90;;;;;;4948994;28;20071;-64
2024/02/26 00:59:30;;;;;;;0.93;0.40;;;8.50;99.90;;;;;;4949832;28;20043;-63
2024/02/26 01:01:58;;;;;;;1.17;0.52;;;8.60;99.90;;;;;;4949451;28;20050;-63
2024/02/26 01:04:25;;;;;;;0.30;0.30;;;8.60;99.90;;;;;;4950298;28;20103;-63
2024/02/26 01:06:52;;;;;;;0.32;0.32;;;8.70;99.90;;;;;;4953528;28;20047;-64
2024/02/26 01:09:19;;;;;;;1.02;0.50;;;8.70;99.90;;;;;;4949687;28;20135;-63
2024/02/26 01:11:46;;;;;;;0.82;0.50;;;8.60;99.90;;;;;;4952318;28;20051;-64
2024/02/26 01:14:13;;;;;;;0.40;0.40;;;8.70;99.90;;;;;;4949553;28;20142;-63
2024/02/26 01:16:40;;;;;;;0.35;0.35;;;8.80;99.90;;;;;;4952435;28;20115;-63
2024/02/26 01:19:06;;;;;;;0.65;0.65;;;8.80;99.90;;;;;;4948168;28;20094;-64
2024/02/26 01:21:34;;;;;;;0.40;0.40;;;8.80;99.90;;;;;;4951438;28;20047;-64
2024/02/26 01:24:00;;;;;;;0.50;0.30;;;8.90;99.90;;;;;;4950561;28;20436;-63
2024/02/26 01:26:27;;;;;;;0.52;0.40;;;9.00;99.90;;;;;;4948574;28;20047;-64
2024/02/26 01:28:55;;;;;;;0.55;0.55;;;9.00;99.90;;;;;;4945366;28;20106;-63
2024/02/26 01:31:22;;;;;;;0.40;0.40;;;9.10;99.90;;;;;;4951974;28;20039;-64
2024/02/26 01:33:49;;;;;;;1.35;0.43;;;9.10;99.90;;;;;;4948949;28;20123;-63
2024/02/26 01:36:16;;;;;;;1.27;0.50;;;9.20;99.90;;;;;;4951423;28;20043;-64
2024/02/26 01:38:42;;;;;;;0.52;0.50;;;9.30;99.90;;;;;;4953180;28;20043;-64
2024/02/26 01:41:09;;;;;;;1.45;0.40;;;9.30;99.90;;;;;;4949810;28;20047;-63
2024/02/26 01:43:36;;;;;;;1.42;0.60;;;9.30;99.90;;;;;;4950063;28;20043;-63
2024/02/26 01:46:03;;;;;;;0.60;0.52;;;9.40;99.90;;;;;;4950214;28;20059;-63
2024/02/26 01:48:30;;;;;;;0.40;0.40;;;9.40;99.90;;;;;;4945951;28;20058;-63
2024/02/26 01:50:57;;;;;;;0.93;0.50;;;9.50;99.90;;;;;;4949765;28;20122;-63
2024/02/26 01:53:25;;;;;;;0.40;0.40;;;9.50;99.90;;;;;;4949176;28;20432;-64
2024/02/26 01:55:51;;;;;;;0.35;0.35;;;9.50;99.90;;;;;;4947034;28;20464;-63
2024/02/26 01:58:18;;;;;;;1.98;0.50;;;9.40;99.90;;;;;;4949541;28;20055;-63
2024/02/26 02:00:45;;;;;;;1.15;0.60;;;9.30;99.90;;;;;;4951785;28;20046;-64
2024/02/26 02:03:12;;;;;;;0.65;0.50;;;9.20;99.90;;;;;;4946288;28;20052;-63
2024/02/26 02:05:41;;;;;;;0.85;0.40;;;9.10;99.90;;;;;;4947613;28;20243;-63
2024/02/26 02:08:11;;;;;;;0.40;0.40;;;8.90;99.90;;;;;;4951832;28;20052;-63
2024/02/26 02:10:38;;;;;;;1.17;0.60;;;8.80;99.90;;;;;;4948755;28;20059;-63
2024/02/26 02:13:05;;;;;;;0.60;0.50;;;8.70;99.90;;;;;;4952854;28;20146;-63
2024/02/26 02:15:32;;;;;;;1.95;0.50;;;8.50;99.90;;;;;;4946428;28;20681;-63
2024/02/26 02:24:21;;;;;;;2.45;0.70;;;8.40;99.90;;;;;;4931950;29;20034;-63
2024/02/26 02:26:48;;;;;;;1.73;0.70;;;8.40;99.90;;;;;;4936907;29;20056;-63
2024/02/26 02:29:15;;;;;;;0.95;0.63;;;8.30;99.90;;;;;;4939316;28;20134;-63
2024/02/26 02:31:42;;;;;;;1.20;0.70;;;8.20;99.90;;;;;;4955509;28;20051;-63
2024/02/26 02:34:09;;;;;;;2.50;1.00;;;8.10;99.90;;;;;;4946551;28;20079;-61
2024/02/26 02:36:54;;;;;;;2.45;0.70;;;8.20;99.90;;;;;;4949960;23;20443;-63
2024/02/26 02:39:21;;;;;;;0.60;0.60;;;8.20;99.90;;;;;;4942701;28;20047;-63
2024/02/26 02:41:49;;;;;;;0.75;0.70;;;8.20;99.90;;;;;;4954832;28;20466;-63
2024/02/26 02:44:15;;;;;;;0.70;0.63;;;8.20;99.90;;;;;;4956162;28;20050;-63
2024/02/26 02:46:43;;;;;;;1.48;0.80;;;8.20;99.90;;;;;;4954248;28;20460;-63
2024/02/26 02:49:14;;;;;;;2.75;0.90;;;8.10;99.90;;;;;;4949929;28;20094;-64
2024/02/26 02:51:40;;;;;;;0.63;0.63;;;8.10;99.90;;;;;;4954359;28;20518;-65
2024/02/26 02:54:07;;;;;;;2.28;0.88;;;8.10;99.90;;;;;;4955012;28;20074;-64
2024/02/26 02:56:35;;;;;;;1.77;0.80;;;8.10;99.90;;;;;;4952381;28;20049;-64
2024/02/26 02:59:02;;;;;;;1.73;1.10;;;8.20;99.90;;;;;;4951870;28;20059;-64
2024/02/26 03:01:29;;;;;;;6.10;1.10;;;8.20;99.90;;;;;;4953048;28;20095;-64
2024/02/26 03:03:56;;;;;;;1.40;0.98;;;8.20;99.90;;;;;;4953002;28;20078;-64
2024/02/26 03:06:23;;;;;;;2.17;1.10;;;8.20;99.90;;;;;;4954833;28;20051;-64
2024/02/26 03:08:50;;;;;;;2.42;0.95;;;8.10;99.90;;;;;;4957252;28;20042;-64
2024/02/26 03:11:17;;;;;;;1.83;1.73;;;8.10;99.90;;;;;;4953244;28;20055;-64
2024/02/26 03:13:44;;;;;;;1.98;0.90;;;8.10;99.90;;;;;;4952819;28;20047;-65
2024/02/26 03:16:10;;;;;;;3.70;0.90;;;7.90;99.90;;;;;;4957088;28;20055;-64
2024/02/26 03:18:40;;;;;;;3.05;1.00;;;7.90;99.90;;;;;;4956313;28;20054;-64
2024/02/26 03:21:07;;;;;;;2.20;1.42;;;7.80;99.90;;;;;;4950361;28;20074;-64
2024/02/26 03:23:36;;;;;;;1.42;1.10;;;7.80;99.90;;;;;;4952315;28;20069;-64
2024/02/26 03:26:06;;;;;;;6.80;1.37;;;7.70;99.90;;;;;;4953120;28;20118;-64
2024/02/26 03:28:33;;;;;;;2.50;1.60;;;7.70;99.90;;;;;;4949568;28;20087;-65
2024/02/26 03:31:02;;;;;;;5.63;1.67;;;7.60;99.90;;;;;;4950499;28;20103;-65
2024/02/26 03:33:28;;;;;;;10.93;2.33;;;7.70;99.90;;;;;;4951345;28;20044;-64
2024/02/26 03:35:55;;;;;;;7.10;2.55;;;7.60;99.90;;;;;;4953252;28;20415;-64
2024/02/26 03:38:22;;;;;;;7.03;2.65;;;7.60;99.90;;;;;;4957605;28;20403;-64
2024/02/26 03:40:49;;;;;;;6.10;2.95;;;7.60;99.90;;;;;;4957204;28;20111;-64
2024/02/26 03:43:16;;;;;;;5.85;2.95;;;7.60;99.90;;;;;;4951255;28;20055;-64
2024/02/26 03:45:43;;;;;;;9.25;3.28;;;7.60;99.90;;;;;;4953874;28;20078;-64
2024/02/26 03:48:10;;;;;;;4.82;3.13;;;7.50;99.90;;;;;;4948786;28;20043;-64
2024/02/26 03:50:37;;;;;;;6.15;3.17;;;7.50;99.90;;;;;;4955681;28;20051;-64
2024/02/26 03:53:03;;;;;;;4.75;2.90;;;7.50;99.90;;;;;;4957352;28;20075;-64
2024/02/26 03:55:30;;;;;;;3.70;2.78;;;7.50;99.90;;;;;;4955930;28;20316;-64
2024/02/26 03:57:57;;;;;;;6.65;2.83;;;7.50;99.90;;;;;;4956099;28;20504;-65
2024/02/26 04:00:25;;;;;;;5.20;3.45;;;7.50;99.90;;;;;;4954049;28;20074;-64
2024/02/26 04:02:52;;;;;;;6.65;2.90;;;7.40;99.90;;;;;;4955141;28;20050;-64
2024/02/26 04:05:19;;;;;;;3.50;2.65;;;7.50;99.90;;;;;;4951249;28;20414;-65
2024/02/26 04:07:46;;;;;;;4.07;2.90;;;7.50;99.90;;;;;;4954606;28;20062;-64
2024/02/26 04:10:13;;;;;;;5.68;2.83;;;7.40;99.90;;;;;;4953325;28;20126;-64
2024/02/26 04:12:41;;;;;;;3.60;2.80;;;7.30;99.90;;;;;;4950317;28;20110;-64
2024/02/26 04:15:09;;;;;;;6.38;3.00;;;7.30;99.90;;;;;;4953730;28;20059;-64
2024/02/26 04:17:37;;;;;;;4.30;2.97;;;7.30;99.90;;;;;;4952731;28;20466;-65
2024/02/26 04:20:05;;;;;;;3.53;2.78;;;7.30;99.90;;;;;;4951445;28;20566;-65
2024/02/26 04:22:33;;;;;;;4.47;3.38;;;7.20;99.90;;;;;;4950476;28;20047;-65
2024/02/26 04:24:59;;;;;;;7.65;3.63;;;7.20;99.90;;;;;;4950321;28;20047;-65
2024/02/26 04:27:26;;;;;;;7.72;3.80;;;7.20;99.90;;;;;;4958101;28;20614;-64
2024/02/26 04:29:53;;;;;;;10.02;3.97;;;7.20;99.90;;;;;;4950103;28;20054;-65
2024/02/26 04:32:20;;;;;;;7.05;3.58;;;7.20;99.90;;;;;;4953427;28;20051;-65
2024/02/26 04:34:47;;;;;;;6.28;3.78;;;7.30;99.90;;;;;;4952460;28;20097;-65
2024/02/26 04:37:14;;;;;;;8.95;4.45;;;7.20;99.90;;;;;;4948812;28;20426;-64
2024/02/26 04:39:41;;;;;;;4.57;3.75;;;7.30;99.90;;;;;;4959946;28;20070;-65
2024/02/26 04:42:08;;;;;;;6.30;3.50;;;7.20;99.90;;;;;;4952271;28;20059;-65
2024/02/26 04:44:34;;;;;;;6.35;3.67;;;7.30;99.90;;;;;;4951856;28;20054;-65
2024/02/26 04:47:01;;;;;;;9.38;4.80;;;7.40;99.90;;;;;;4947056;28;20047;-65
2024/02/26 04:49:29;;;;;;;5.15;2.75;;;7.40;99.90;;;;;;4951479;28;20107;-65
2024/02/26 04:51:55;;;;;;;4.43;2.20;;;7.40;99.90;;;;;;4951860;28;20510;-65
2024/02/26 04:54:22;;;;;;;2.05;1.15;;;7.50;99.90;;;;;;4934521;29;20051;-65
2024/02/26 04:56:49;;;;;;;1.08;0.90;;;7.60;99.90;;;;;;4952647;28;20047;-65
2024/02/26 04:59:16;;;;;;;0.65;0.60;;;7.70;99.90;;;;;;4948769;28;20542;-65
2024/02/26 05:01:43;;;;;;;2.25;1.52;;;7.70;99.90;;;;;;4951357;28;20134;-65
2024/02/26 05:04:09;;;;;;;1.17;0.75;;;7.80;99.90;;;;;;4949626;28;20105;-65
2024/02/26 05:06:37;;;;;;;1.35;0.82;;;7.90;99.90;;;;;;4949903;28;20560;-65
2024/02/26 05:09:04;;;;;;;1.20;0.80;;;8.00;99.90;;;;;;4949229;28;20126;-65
2024/02/26 05:11:31;;;;;;;2.13;1.20;;;8.00;99.90;;;;;;4949419;28;20511;-65
2024/02/26 05:13:58;;;;;;;2.30;0.90;;;8.00;99.90;;;;;;4946184;28;20047;-65
2024/02/26 05:16:26;;;;;;;1.35;1.00;;;8.00;99.90;;;;;;4948443;28;20070;-65
2024/02/26 05:18:53;;;;;;;2.83;1.48;;;8.00;99.90;;;;;;4949799;28;20055;-65
2024/02/26 05:21:20;;;;;;;2.13;1.35;;;8.00;99.90;;;;;;4951457;28;20122;-64
2024/02/26 05:23:48;;;;;;;2.90;1.33;;;8.10;99.90;;;;;;4951699;28;20059;-64
2024/02/26 05:26:22;;;;;;;2.97;1.33;;;8.10;99.90;;;;;;4949538;28;20047;-65
2024/02/26 05:28:49;;;;;;;1.13;0.90;;;8.10;99.90;;;;;;4944333;28;20484;-65
2024/02/26 05:31:17;;;;;;;0.70;0.50;;;8.10;99.90;;;;;;4948840;28;20409;-65
2024/02/26 05:33:44;;;;;;;0.45;0.43;;;8.20;99.90;;;;;;4951084;28;20082;-65
2024/02/26 05:36:22;;;;;;;0.40;0.40;;;8.20;99.90;;;;;;4942290;28;20061;-65
2024/02/26 05:38:49;;;;;;;0.88;0.50;;;8.20;99.90;;;;;;4942480;28;20105;-64
2024/02/26 05:41:20;;;;;;;0.57;0.52;;;8.20;99.90;;;;;;4947450;28;20116;-64
2024/02/26 05:43:46;;;;;;;;;;;8.20;99.90;;;;;;4942099;28;20051;-64
2024/02/26 05:46:15;;;;;;;0.30;0.30;;;8.20;99.90;;;;;;4943561;28;19930;-64
2024/02/26 05:48:42;;;;;;;0.57;0.50;;;8.30;99.90;;;;;;4949581;28;20511;-65
2024/02/26 05:51:09;;;;;;;1.92;0.73;;;8.20;99.90;;;;;;4932720;28;20107;-64
2024/02/26 05:53:36;;;;;;;0.80;0.70;;;8.20;99.90;;;;;;4952167;28;20135;-64
2024/02/26 05:56:03;;;;;;;3.22;1.10;;;8.20;99.90;;;;;;4951560;28;20048;-65
2024/02/26 05:58:30;;;;;;;1.52;0.95;;;8.20;99.90;;;;;;4945109;28;20047;-64
2024/02/26 06:00:57;;;;;;;2.40;1.02;;;8.20;99.90;;;;;;4948330;28;20587;-64
2024/02/26 06:03:23;;;;;;;2.38;1.40;;;8.20;99.90;;;;;;4946191;29;20058;-64
2024/02/26 06:05:50;;;;;;;3.90;2.50;;;8.10;99.90;;;;;;4947372;29;20051;-64
2024/02/26 06:08:17;;;;;;;6.82;2.92;;;8.00;99.90;;;;;;4949873;28;20047;-65
2024/02/26 06:10:44;;;;;;;6.70;3.25;;;7.80;99.90;;;;;;4946576;28;20526;-64
2024/02/26 06:13:11;;;;;;;6.38;3.80;;;7.70;99.90;;;;;;4934423;28;20071;-64
2024/02/26 06:15:37;;;;;;;4.55;3.30;;;7.60;99.90;;;;;;4953085;28;20078;-64
2024/02/26 06:18:04;;;;;;;7.05;4.22;;;7.50;99.90;;;;;;4954816;28;20085;-64
2024/02/26 06:20:31;;;;;;;6.35;5.35;;;7.50;99.90;;;;;;4951708;28;20068;-64
2024/02/26 06:22:58;;;;;;;6.47;5.35;;;7.50;99.90;;;;;;4951397;28;20078;-64
2024/02/26 06:25:25;;;;;;;6.18;4.97;;;7.50;99.90;;;;;;4946615;28;20054;-64
2024/02/26 06:27:52;;;;;;;6.25;4.75;;;7.40;99.90;;;;;;4949063;28;20438;-64
2024/02/26 06:30:19;;;;;;;7.53;5.05;;;7.50;99.90;;;;;;4961024;28;20135;-65
2024/02/26 06:32:46;;;;;;;8.07;5.95;;;7.50;99.90;;;;;;4954741;28;20054;-64
2024/02/26 06:35:13;;;;;;;9.63;6.20;;;7.40;99.90;;;;;;4951151;28;20047;-65
2024/02/26 06:37:39;;;;;;;7.35;5.50;;;7.30;99.90;;;;;;4953666;28;20058;-64
2024/02/26 06:40:07;;;;;;;8.05;5.75;;;7.20;99.90;;;;;;4947217;28;20055;-64
2024/02/26 06:42:34;;;;;;;9.10;4.97;;;7.20;99.90;;;;;;4946512;29;20134;-63
2024/02/26 06:45:01;;;;;;;7.25;4.80;;;7.20;99.90;;;;;;4954028;28;20466;-64
2024/02/26 06:47:28;;;;;;;9.02;5.97;;;7.10;99.90;;;;;;4954082;28;20079;-63
2024/02/26 06:49:57;;;;;;;6.35;4.90;;;7.10;99.90;;;;;;4954264;28;20406;-63
2024/02/26 06:52:25;;;;;;;9.90;5.40;;;7.10;99.90;;;;;;4951735;29;20578;-63
2024/02/26 06:54:52;;;;;;;8.02;5.90;;;7.10;99.90;;;;;;4951554;28;20603;-64
2024/02/26 06:57:20;;;;;;;5.65;4.90;;;7.20;99.90;;;;;;4952298;29;20103;-63
2024/02/26 06:59:47;;;;;;;8.07;5.28;;;7.20;99.90;;;;;;4950749;28;20051;-63
2024/02/26 07:02:14;;;;;;;6.90;5.15;;;7.30;99.90;;;;;;4954463;28;20415;-63
2024/02/26 07:04:41;;;;;;;6.28;5.07;;;7.30;99.90;;;;;;4958720;28;20047;-63
2024/02/26 07:07:09;;;;;;;10.10;5.88;;;7.40;99.90;;;;;;4954977;28;20636;-63
2024/02/26 07:09:36;;;;;;;9.60;5.80;;;7.50;99.90;;;;;;4959307;28;20105;-63
2024/02/26 07:12:03;;;;;;;8.35;5.53;;;7.60;99.90;;;;;;4955251;28;20538;-63
2024/02/26 07:14:30;;;;;;;8.68;5.53;;;7.70;99.90;;;;;;4954321;28;20043;-64
2024/02/26 07:16:58;;;;;;;7.40;5.72;;;7.80;99.90;;;;;;4958710;28;20055;-63
2024/02/26 07:19:25;;;;;;;7.47;5.85;;;8.00;99.90;;;;;;4954219;28;20138;-62
2024/02/26 07:21:51;;;;;;;6.85;5.95;;;8.20;99.90;;;;;;4951185;28;20057;-63
2024/02/26 07:24:18;;;;;;;7.35;5.82;;;8.30;99.90;;;;;;4959330;28;20059;-63
2024/02/26 07:26:45;;;;;;;7.88;5.88;;;8.30;99.90;;;;;;4955331;28;20098;-63
2024/02/26 07:29:12;;;;;;;8.68;5.97;;;8.30;99.90;;;;;;4950256;28;20058;-63
2024/02/26 07:31:39;;;;;;;6.97;5.88;;;8.20;99.90;;;;;;4956658;28;21655;-64
2024/02/26 07:34:06;;;;;;;8.02;6.10;;;8.10;99.90;;;;;;4948830;28;20522;-64
2024/02/26 07:36:33;;;;;;;7.57;5.35;;;8.00;99.90;;;;;;4953555;28;20047;-65
2024/02/26 07:39:01;;;;;;;7.70;6.13;;;8.00;99.90;;;;;;4953290;28;20118;-64
2024/02/26 07:41:28;;;;;;;8.23;7.00;;;8.10;99.90;;;;;;4958494;28;20495;-64
2024/02/26 07:43:54;;;;;;;12.40;8.93;;;8.20;99.90;;;;;;4953225;28;20051;-64
2024/02/26 07:46:21;;;;;;;12.50;8.70;;;8.20;99.90;;;;;;4942321;28;20102;-63
2024/02/26 07:48:48;;;;;;;13.45;9.98;;;8.30;99.90;;;;;;4959018;28;20078;-63
2024/02/26 07:51:15;;;;;;;12.43;9.65;;;8.30;99.90;;;;;;4955956;28;20051;-62
2024/02/26 07:53:41;;;;;;;11.52;9.57;;;8.40;99.90;;;;;;4951997;28;20043;-62
2024/02/26 07:56:09;;;;;;;10.73;8.98;;;8.40;99.90;;;;;;4951997;28;20055;-64
2024/02/26 07:58:36;;;;;;;8.98;8.07;;;8.50;99.90;;;;;;4948233;28;20047;-64
2024/02/26 08:01:02;;;;;;;10.88;8.40;;;8.50;99.90;;;;;;4948163;28;20159;-63
2024/02/26 08:03:29;;;;;;;12.50;9.55;;;8.40;99.90;;;;;;4950704;28;20735;-64
2024/02/26 08:05:56;;;;;;;10.57;8.57;;;8.60;99.90;;;;;;4949663;28;20051;-65
2024/02/26 08:08:23;;;;;;;9.63;7.80;;;8.80;99.90;;;;;;4947231;28;20503;-64
2024/02/26 08:10:50;;;;;;;11.40;7.57;;;9.10;99.90;;;;;;4951181;28;20047;-65
2024/02/26 08:13:16;;;;;;;7.15;6.20;;;9.30;99.90;;;;;;4954537;28;20499;-64
2024/02/26 08:15:43;;;;;;;7.18;6.43;;;9.40;99.90;;;;;;4956479;28;20046;-64
2024/02/26 08:18:10;;;;;;;6.80;6.07;;;9.50;99.90;;;;;;4953388;28;20051;-64
2024/02/26 08:20:37;;;;;;;7.35;6.60;;;9.60;99.90;;;;;;4948372;28;20074;-63
2024/02/26 08:23:04;;;;;;;9.45;7.18;;;9.80;99.90;;;;;;4950113;28;20042;-62
2024/02/26 08:25:31;;;;;;;7.50;5.70;;;10.00;99.90;;;;;;4949309;28;20411;-62
2024/02/26 08:27:57;;;;;;;8.60;6.53;;;9.90;99.90;;;;;;4951308;28;20422;-63
2024/02/26 08:30:24;;;;;;;6.82;6.13;;;9.80;99.90;;;;;;4950423;28;20039;-63
2024/02/26 08:32:52;;;;;;;7.00;4.95;;;9.90;99.90;;;;;;4953048;28;20090;-63
2024/02/26 08:35:19;;;;;;;5.93;5.32;;;9.80;99.90;;;;;;4954715;28;20102;-62
2024/02/26 08:37:47;;;;;;;5.50;4.75;;;9.90;99.90;;;;;;4947317;28;20134;-62
2024/02/26 08:40:15;;;;;;;6.55;4.80;;;9.80;99.90;;;;;;4947762;28;20503;-63
2024/02/26 08:42:42;;;;;;;7.57;4.53;;;9.60;99.90;;;;;;4947512;29;20496;-62
2024/02/26 08:45:09;;;;;;;6.13;4.72;;;9.50;99.90;;;;;;4932745;28;20541;-62
2024/02/26 08:47:36;;;;;;;6.82;5.00;;;9.30;99.90;;;;;;4950732;28;20059;-63
2024/02/26 08:50:04;;;;;;;6.15;4.63;;;9.20;99.90;;;;;;4952621;28;20518;-65
2024/02/26 08:52:31;;;;;;;4.03;3.63;;;9.20;99.90;;;;;;4951038;28;20047;-64
2024/02/26 08:54:58;;;;;;;5.45;4.10;;;9.10;99.90;;;;;;4949354;28;20081;-61
2024/02/26 08:57:26;;;;;;;4.70;3.45;;;8.90;99.90;;;;;;4946859;28;20411;-64
2024/02/26 08:59:53;;;;;;;5.35;3.97;;;8.90;99.90;;;;;;4948988;28;20518;-64
2024/02/26 09:02:20;;;;;;;5.80;4.00;;;8.90;99.90;;;;;;4952278;28;20053;-64
2024/02/26 09:04:47;;;;;;;10.10;4.30;;;8.90;99.90;;;;;;4953548;28;20110;-64
2024/02/26 09:07:14;;;;;;;6.18;4.30;;;9.00;99.90;;;;;;4952229;28;20063;-63
2024/02/26 09:09:41;;;;;;;6.45;4.75;;;9.40;99.90;;;;;;4950141;28;20074;-65
2024/02/26 09:12:08;;;;;;;5.75;4.43;;;9.70;99.90;;;;;;4949641;29;20074;-65
2024/02/26 09:14:35;;;;;;;4.22;3.50;;;9.90;99.90;;;;;;4949677;28;20046;-65
2024/02/26 09:17:02;;;;;;;4.30;3.90;;;10.00;99.90;;;;;;4950259;28;20055;-65
2024/02/26 09:19:29;;;;;;;5.03;3.95;;;10.10;99.90;;;;;;4948344;28;20133;-65
2024/02/26 09:21:57;;;;;;;3.10;2.80;;;10.20;99.90;;;;;;4955373;28;20622;-65
2024/02/26 09:24:24;;;;;;;4.15;3.50;;;10.30;99.90;;;;;;4951461;28;20213;-65
2024/02/26 09:26:51;;;;;;;3.75;3.45;;;10.40;99.90;;;;;;4948833;28;20075;-65
2024/02/26 09:29:18;;;;;;;5.57;3.90;;;10.40;99.90;;;;;;4954743;28;20741;-64
2024/02/26 09:31:47;;;;;;;4.85;4.00;;;10.30;99.90;;;;;;4949912;28;20471;-65
2024/02/26 09:34:14;;;;;;;4.38;3.95;;;10.20;99.90;;;;;;4947960;29;20503;-65
2024/02/26 09:36:41;;;;;;;5.50;2.85;;;10.30;99.90;;;;;;4946798;29;20066;-65
2024/02/26 09:39:11;;;;;;;8.80;3.13;;;10.20;99.90;;;;;;4949180;28;20070;-65
2024/02/26 09:41:38;;;;;;;4.93;3.28;;;10.20;99.90;;;;;;4958911;28;20077;-64
2024/02/26 09:44:05;;;;;;;4.05;2.83;;;10.50;99.90;;;;;;4949077;28;20054;-63
2024/02/26 09:46:33;;;;;;;4.35;2.83;;;10.50;99.90;;;;;;4952361;28;20052;-63
2024/02/26 09:49:00;;;;;;;4.72;3.30;;;10.30;99.90;;;;;;4960825;28;20055;-63
2024/02/26 09:51:27;;;;;;;4.85;2.67;;;10.40;99.90;;;;;;4959486;28;20047;-64
2024/02/26 09:53:56;;;;;;;3.95;3.10;;;10.10;99.90;;;;;;4947946;28;20209;-64
2024/02/26 09:56:23;;;;;;;4.95;2.80;;;10.10;99.90;;;;;;4953612;28;20043;-64
2024/02/26 09:58:54;;;;;;;5.28;3.50;;;10.30;99.90;;;;;;4951490;28;20043;-65
2024/02/26 10:01:21;;;;;;;3.38;2.42;;;10.20;99.90;;;;;;4939209;28;20109;-65
2024/02/26 10:03:57;;;;;;;4.00;2.90;;;10.20;99.90;;;;;;4949006;28;20523;-65
2024/02/26 10:06:26;;;;;;;3.28;2.50;;;10.30;99.90;;;;;;4955257;28;20134;-64
2024/02/26 10:08:54;;;;;;;2.60;2.40;;;10.60;99.90;;;;;;4948686;28;20043;-64
2024/02/26 10:11:23;;;;;;;4.28;2.28;;;11.00;99.90;;;;;;4954159;28;20050;-64
2024/02/26 10:13:50;;;;;;;4.30;2.53;;;11.00;99.90;;;;;;4947713;28;20043;-63
2024/02/26 10:16:17;;;;;;;3.40;3.05;;;10.60;99.90;;;;;;4945323;28;20046;-65
2024/02/26 10:18:54;;;;;;;2.15;1.85;;;10.70;99.90;;;;;;4954935;28;20043;-64
2024/02/26 10:21:26;;;;;;;3.45;1.65;;;10.80;99.90;;;;;;4956247;28;20137;-60
2024/02/26 10:23:54;;;;;;;4.05;2.03;;;10.90;99.90;;;;;;4960139;28;20055;-66
2024/02/26 10:26:21;;;;;;;2.15;1.95;;;11.00;99.90;;;;;;4947219;28;20451;-64
2024/02/26 10:28:49;;;;;;;3.70;1.80;;;11.30;99.90;;;;;;4947302;28;20137;-66
2024/02/26 10:31:21;;;;;;;1.67;1.58;;;11.50;99.90;;;;;;4951837;28;20060;-65
2024/02/26 10:33:49;;;;;;;3.38;1.60;;;11.50;99.90;;;;;;4949880;28;20633;-65
2024/02/26 10:36:17;;;;;;;1.65;1.52;;;11.50;99.90;;;;;;4949041;28;20047;-66
2024/02/26 10:38:43;;;;;;;4.60;2.25;;;11.50;99.90;;;;;;4956106;28;20052;-65
2024/02/26 10:41:14;;;;;;;3.90;2.22;;;11.30;99.90;;;;;;4946113;28;20043;-66
2024/02/26 10:43:43;;;;;;;4.93;2.28;;;11.20;99.90;;;;;;4947581;28;20380;-65
2024/02/26 10:46:10;;;;;;;4.35;2.33;;;11.30;99.90;;;;;;4947273;28;20051;-64
2024/02/26 10:48:37;;;;;;;3.17;2.28;;;11.30;99.90;;;;;;4952276;28;20563;-64
2024/02/26 10:51:04;;;;;;;3.75;2.72;;;11.30;99.90;;;;;;4948323;28;20062;-64
2024/02/26 10:53:33;;;;;;;2.30;2.10;;;11.50;99.90;;;;;;4953766;28;20522;-64
2024/02/26 10:56:05;;;;;;;6.57;2.40;;;11.60;99.90;;;;;;4949748;28;20054;-64
2024/02/26 10:58:33;;;;;;;3.90;2.60;;;11.80;99.90;;;;;;4948995;28;20579;-64
2024/02/26 11:01:00;;;;;;;4.25;2.50;;;11.50;99.90;;;;;;4937248;29;20055;-63
2024/02/26 11:03:32;;;;;;;4.18;2.05;;;11.60;99.90;;;;;;4951777;29;20051;-65
2024/02/26 11:06:01;;;;;;;4.00;2.03;;;11.80;99.90;;;;;;4952489;28;20637;-61
2024/02/26 11:08:28;;;;;;;3.83;1.60;;;12.00;99.90;;;;;;4951485;28;20547;-62
2024/02/26 11:10:58;;;;;;;5.22;1.83;;;12.00;99.90;;;;;;4950856;28;20138;-62
2024/02/26 11:13:29;;;;;;;3.28;2.00;;;12.20;99.90;;;;;;4950284;29;20051;-62
2024/02/26 11:15:59;;;;;;;1.98;1.77;;;12.00;99.90;;;;;;4950345;29;20110;-62
2024/02/26 11:18:27;;;;;;;2.00;1.70;;;11.90;99.90;;;;;;4952890;28;20049;-63
2024/02/26 11:20:57;;;;;;;6.63;1.70;;;11.70;99.90;;;;;;4950282;28;20050;-64
2024/02/26 11:23:24;;;;;;;1.75;1.60;;;11.60;99.90;;;;;;4948175;28;20057;-64
2024/02/26 11:25:53;;;;;;;2.63;1.58;;;11.50;99.90;;;;;;4942856;29;20511;-64
2024/02/26 11:28:23;;;;;;;3.42;1.83;;;11.30;99.90;;;;;;4943051;28;20094;-63
2024/02/26 11:30:51;;;;;;;2.88;1.90;;;11.30;99.90;;;;;;4946955;28;20046;-63
2024/02/26 11:33:19;;;;;;;4.68;1.80;;;11.30;99.90;;;;;;4950572;28;20143;-64
2024/02/26 11:35:46;;;;;;;3.83;1.58;;;11.20;99.90;;;;;;4950817;28;20050;-63
2024/02/26 11:38:26;;;;;;;5.00;1.88;;;11.30;99.90;;;;;;4951952;28;20053;-63
2024/02/26 11:40:53;;;;;;;3.00;1.63;;;11.40;99.90;;;;;;4949009;28;20051;-64
2024/02/26 11:43:44;;;;;;;3.17;1.67;;;11.40;99.90;;;;;;4958353;28;20168;-64
2024/02/26 11:46:31;;;;;;;2.20;1.30;;;11.30;99.90;;;;;;4956115;28;20046;-64
2024/02/26 11:49:20;;;;;;;4.10;1.40;;;11.30;99.90;;;;;;4948385;28;20065;-63
2024/02/26 11:51:52;;;;;;;3.30;1.92;;;11.10;99.90;;;;;;4950250;28;20038;-63
2024/02/26 11:54:43;;;;;;;4.25;1.98;;;11.20;99.90;;;;;;4951790;28;20134;-64
2024/02/26 11:57:36;;;;;;;3.53;2.10;;;11.30;99.90;;;;;;4948546;28;20052;-64
2024/02/26 12:00:14;;;;;;;2.13;1.75;;;11.30;99.90;;;;;;4946213;28;20043;-64
2024/02/26 12:02:47;;;;;;;2.60;2.30;;;11.50;99.90;;;;;;4948503;28;20157;-65
2024/02/26 12:05:16;;;;;;;2.22;1.77;;;11.60;99.90;;;;;;4949587;28;20751;-64
2024/02/26 12:07:45;;;;;;;5.20;2.00;;;11.80;99.90;;;;;;4943583;28;20047;-64
2024/02/26 12:10:25;;;;;;;2.25;1.67;;;11.90;99.90;;;;;;4944384;28;20118;-64
2024/02/26 12:13:13;;;;;;;5.20;1.85;;;12.00;99.90;;;;;;4948155;28;20055;-65
2024/02/26 12:15:56;;;;;;;3.80;1.50;;;11.90;99.90;;;;;;4950443;28;20387;-64
2024/02/26 12:18:23;;;;;;;4.57;2.83;;;12.00;99.90;;;;;;4952011;28;20054;-64
2024/02/26 12:21:01;;;;;;;2.25;1.63;;;12.10;99.90;;;;;;4952357;28;20121;-62
2024/02/26 12:23:28;;;;;;;4.60;2.40;;;12.10;99.90;;;;;;4949969;28;20053;-64
2024/02/26 12:26:01;;;;;;;2.75;1.60;;;12.30;99.90;;;;;;4954661;28;20114;-64
2024/02/26 12:28:33;;;;;;;2.47;1.92;;;12.50;99.90;;;;;;4952839;28;20130;-64
2024/02/26 12:31:00;;;;;;;3.72;2.17;;;12.60;99.90;;;;;;4950435;28;20047;-65
2024/02/26 12:33:27;;;;;;;2.30;1.67;;;12.80;99.90;;;;;;4957303;28;20232;-64
2024/02/26 12:35:55;;;;;;;3.53;1.70;;;13.00;99.90;;;;;;4947078;28;20134;-64
2024/02/26 12:38:22;;;;;;;2.38;1.70;;;13.00;99.90;;;;;;4951862;28;20055;-65
2024/02/26 12:40:50;;;;;;;2.85;1.40;;;13.20;99.90;;;;;;4949678;28;20130;-66
2024/02/26 12:43:17;;;;;;;2.60;1.60;;;13.10;99.90;;;;;;4951128;28;20424;-65
2024/02/26 12:45:47;;;;;;;1.45;1.23;;;12.90;99.90;;;;;;4949128;28;20507;-66
2024/02/26 12:48:14;;;;;;;1.95;1.52;;;12.90;99.90;;;;;;4947321;28;20078;-65
2024/02/26 12:50:46;;;;;;;4.35;1.98;;;12.90;99.90;;;;;;4949805;28;20541;-64
2024/02/26 12:53:14;;;;;;;1.98;1.60;;;12.90;99.90;;;;;;4949777;28;20050;-64
2024/02/26 12:55:42;;;;;;;4.78;1.80;;;12.60;99.90;;;;;;4949755;28;20394;-64
2024/02/26 12:58:08;;;;;;;4.88;2.58;;;12.50;99.90;;;;;;4948950;28;20062;-62
2024/02/26 13:00:36;;;;;;;3.88;1.70;;;12.50;99.90;;;;;;4948851;28;20051;-66
2024/02/26 13:03:03;;;;;;;4.97;2.20;;;12.30;99.90;;;;;;4957862;28;20062;-64